イスタンブル の空港の天気 - METARとTAF

アタテュルク国際空港(イスタンブル) ( LTBA / IST ) - トルコ イスタンブル
飛行場実況気象(Metar)
観測時間03/22 21:20 EET (03/22 18:20 UTC)
風向・風速東北東 4m/s
視程10km以上
天気現象
なし
気温11℃
湿度58%
気圧1026hPa
METARLTBA 221820Z 06008KT 350V140 CAVOK 11/03 Q1026 NOSIG RMK RWY17L 05007KT RWY05 04008KT RWY23 05008KT
過去の天気等 Google飛行場航空写真 Wunderground天気予報

過去48時間のMETAR

飛行場予報(TAF)
発表時間: 3/22 19:40 EET (3/22 16:40 UTC)
予報対象時間: 22日21時 EET ~ 24日3時 EET
風向・風速北北東 4m/s
視程10km以上
なし
23日1時 EET ~ 23日4時 EET に徐々に
全天の4割程度の雲 雲底高度 1220m
全天の8割程度の雲 雲底高度 3050m
23日4時 EET ~ 23日8時 EET に一時的に
視程3200m
天気現象もや
23日13時 EET ~ 23日17時 EET に一時的に
風向・風速北北東 8m/s 瞬間風速 14m/s
23日17時 EET ~ 23日20時 EET に徐々に
視程10km以上
なし
TAF LTBA 221640Z 2218/2324 03007KT CAVOK
BECMG 2222/2301 SCT040 BKN100
TEMPO 2301/2305 3200 BR
TEMPO 2310/2314 02015G27KT
BECMG 2314/2317 CAVOK